Time;durP1;ratioP1;P1;durP2;ratioP2;P2;SDS_P1;SDS_P2;PMS_P1;PMS_P2;Temp;Humidity;BMP_temperature;BMP_pressure;BME280_temperature;BME280_humidity;BME280_pressure;Samples;Min_cycle;Max_cycle;Signal;HPM_P1;HPM_P2
2022/07/13 02:50:29;;;;;;;0.20;0.10;;;;;;;;;;6169047;23;20025;-93
2022/07/13 02:53:06;;;;;;;0.20;0.10;;;;;;;;;;6118174;23;20017;-93
2022/07/13 04:16:01;;;;;;;0.20;0.10;;;;;;;;;;6093973;23;20026;-91
2022/07/13 04:18:30;;;;;;;0.20;0.10;;;;;;;;;;6046511;23;20015;-91
2022/07/13 04:21:13;;;;;;;0.20;0.15;;;;;;;;;;6021758;23;20066;-91
2022/07/13 04:23:51;;;;;;;0.20;0.10;;;;;;;;;;6019185;23;20015;-91
2022/07/13 04:26:20;;;;;;;0.20;0.10;;;;;;;;;;6018120;23;20022;-91
2022/07/13 04:28:47;;;;;;;0.20;0.10;;;;;;;;;;6017682;23;20351;-90
2022/07/13 04:31:13;;;;;;;0.20;0.10;;;;;;;;;;6017564;23;20068;-90
2022/07/13 04:33:39;;;;;;;0.20;0.10;;;;;;;;;;6017549;23;20089;-91
2022/07/13 04:36:14;;;;;;;0.20;0.10;;;;;;;;;;6018234;23;20066;-90
2022/07/13 04:38:43;;;;;;;0.20;0.10;;;;;;;;;;6016975;23;20026;-90
2022/07/13 04:41:25;;;;;;;0.20;0.10;;;;;;;;;;6017005;23;20038;-91
2022/07/13 04:43:54;;;;;;;0.20;0.20;;;;;;;;;;6017584;23;20023;-91
2022/07/13 04:46:22;;;;;;;0.20;0.10;;;;;;;;;;6017975;23;20026;-91
2022/07/13 04:48:51;;;;;;;0.20;0.10;;;;;;;;;;6017917;23;20018;-91
2022/07/13 04:51:20;;;;;;;0.20;0.10;;;;;;;;;;6018389;23;20124;-91
2022/07/13 04:53:49;;;;;;;0.20;0.10;;;;;;;;;;6017319;23;20451;-91
2022/07/13 04:56:15;;;;;;;0.20;0.10;;;;;;;;;;6017783;23;20021;-91
2022/07/13 04:58:41;;;;;;;0.20;0.10;;;;;;;;;;6018279;23;20017;-90
2022/07/13 05:01:08;;;;;;;0.22;0.22;;;;;;;;;;6016689;23;20018;-90
2022/07/13 05:03:37;;;;;;;0.20;0.10;;;;;;;;;;6019052;23;20052;-92
2022/07/13 05:06:03;;;;;;;0.43;0.30;;;;;;;;;;6019864;23;20085;-92
2022/07/13 05:08:29;;;;;;;0.20;0.10;;;;;;;;;;6019146;23;20019;-91
2022/07/13 05:11:00;;;;;;;0.20;0.10;;;;;;;;;;6024783;23;20026;-93
2022/07/13 05:13:35;;;;;;;0.20;0.10;;;;;;;;;;6022912;23;20018;-91
2022/07/13 05:16:26;;;;;;;0.20;0.10;;;;;;;;;;6021466;23;20017;-92
2022/07/13 05:19:05;;;;;;;;;;;;;;;;;;;;;
2022/07/13 05:21:38;;;;;;;0.20;0.10;;;;;;;;;;6068264;23;20018;-92
2022/07/13 05:24:04;;;;;;;0.20;0.20;;;;;;;;;;6018034;23;20019;-91
2022/07/13 05:26:38;;;;;;;0.20;0.10;;;;;;;;;;6018097;23;20078;-91
2022/07/13 05:29:16;;;;;;;0.20;0.10;;;;;;;;;;6018149;23;20094;-91
2022/07/13 05:31:45;;;;;;;0.20;0.10;;;;;;;;;;6016561;23;20101;-91
2022/07/13 05:34:14;;;;;;;0.20;0.10;;;;;;;;;;6017791;23;20049;-93
2022/07/13 05:36:40;;;;;;;0.20;0.10;;;;;;;;;;6016678;23;20019;-92
2022/07/13 05:39:09;;;;;;;0.20;0.10;;;;;;;;;;6016828;23;20388;-90
2022/07/13 05:41:38;;;;;;;0.20;0.10;;;;;;;;;;6018830;23;20440;-92
2022/07/13 05:48:04;;;;;;;0.20;0.10;;;;;;;;;;6036390;23;20045;-92
2022/07/13 05:50:43;;;;;;;0.20;0.10;;;;;;;;;;5965476;23;20075;-94
2022/07/13 05:53:19;;;;;;;0.20;0.10;;;;;;;;;;6020386;23;20539;-92
2022/07/13 05:56:03;;;;;;;0.20;0.10;;;;;;;;;;6020108;23;20022;-91
2022/07/13 05:58:43;;;;;;;0.20;0.10;;;;;;;;;;6020915;23;20090;-93
2022/07/13 06:01:12;;;;;;;0.20;0.10;;;;;;;;;;6023167;23;20023;-90
2022/07/13 06:03:47;;;;;;;0.20;0.10;;;;;;;;;;6029051;23;20018;-93
2022/07/13 06:06:54;;;;;;;0.20;0.10;;;;;;;;;;6052258;23;20019;-91
